This is the latest recevied weather packets stored in our database for station/object DL6MAA-11. If no packets are shown the sender has not sent any weather packets the latest 10 day(s).
| Time | Temp. | Humidity | Pressure | Rain* | Wind** | Luminosity | Snow |
|---|---|---|---|---|---|---|---|
| 1777191448 | 13.89° C | 49% | 1019.9 hPa | 0 mm | - | 418 W/m² | - |
| 1777191148 | 13.33° C | 48% | 1019.7 hPa | 0 mm | - | 410 W/m² | - |
| 1777190849 | 13.89° C | 47% | 1019.7 hPa | 0 mm | - | 406 W/m² | - |
| 1777190554 | 13.33° C | 49% | 1019.7 hPa | 0 mm | - | 392 W/m² | - |
| 1777190262 | 13.33° C | 48% | 1019.6 hPa | 0 mm | - | 390 W/m² | - |
| 1777189949 | 13.33° C | 47% | 1019.6 hPa | 0 mm | - | 378 W/m² | - |
| 1777189653 | 12.78° C | 48% | 1019.6 hPa | 0 mm | - | 366 W/m² | - |
| 1777189351 | 12.78° C | 48% | 1019.5 hPa | 0 mm | - | 371 W/m² | - |
| 1777189055 | 12.78° C | 48% | 1019.5 hPa | 0 mm | - | 364 W/m² | - |
| 1777188761 | 12.78° C | 48% | 1019.5 hPa | 0 mm | - | 346 W/m² | - |
| 1777188447 | 12.22° C | 51% | 1019.6 hPa | 0 mm | - | 341 W/m² | - |
| 1777188153 | 12.22° C | 50% | 1019.6 hPa | 0 mm | - | 336 W/m² | - |
| 1777187862 | 12.22° C | 52% | 1019.6 hPa | 0 mm | - | 322 W/m² | - |
| 1777187554 | 11.67° C | 52% | 1019.3 hPa | 0 mm | - | 315 W/m² | - |
| 1777187257 | 11.11° C | 54% | 1019.3 hPa | 0 mm | - | 304 W/m² | - |
| 1777186965 | 11.11° C | 53% | 1019.3 hPa | 0 mm | - | 295 W/m² | - |
| 1777186648 | 10.56° C | 52% | 1019.4 hPa | 0 mm | - | 287 W/m² | - |
| 1777186352 | 10° C | 57% | 1019.4 hPa | 0 mm | - | 278 W/m² | - |
| 1777186055 | 10° C | 56% | 1019.4 hPa | 0 mm | - | 269 W/m² | - |
| 1777185762 | 9.44° C | 58% | 1019.5 hPa | 0 mm | - | 258 W/m² | - |
| 1777185450 | 8.89° C | 63% | 1019.5 hPa | 0 mm | - | 253 W/m² | - |
| 1777185154 | 8.33° C | 65% | 1019.5 hPa | 0 mm | - | 241 W/m² | - |
| 1777184857 | 8.33° C | 64% | 1019.8 hPa | 0 mm | - | 230 W/m² | - |
| 1777184548 | 7.78° C | 67% | 1019.8 hPa | 0 mm | - | 223 W/m² | - |
| 1777184259 | 7.22° C | 67% | 1019.8 hPa | 0 mm | - | 211 W/m² | - |
* Rain since midnight (hover to see other rain measurements)
** Current wind speed in m/s (hover to see current wind gust speed)